Time;durP1;ratioP1;P1;durP2;ratioP2;P2;SDS_P1;SDS_P2;PMS_P1;PMS_P2;Temp;Humidity;BMP_temperature;BMP_pressure;BME280_temperature;BME280_humidity;BME280_pressure;Samples;Min_cycle;Max_cycle;Signal;HPM_P1;HPM_P2
2021/09/29 00:00:41;;;;;;;;;;;;;;;8.94;97.56;99513.42;112248;1194;66247;-81
2021/09/29 00:03:08;;;;;;;;;;;;;;;8.92;97.57;99509.77;112246;1194;60946;-81
2021/09/29 00:05:34;;;;;;;;;;;;;;;8.91;97.69;99504.20;112128;1195;61034;-81
2021/09/29 00:08:00;;;;;;;;;;;;;;;8.91;97.74;99500.84;112274;1195;61065;-81
2021/09/29 00:10:27;;;;;;;;;;;;;;;8.90;97.82;99496.27;112307;1196;61009;-81
2021/09/29 00:12:53;;;;;;;;;;;;;;;8.88;97.81;99497.04;112274;1196;61126;-81
2021/09/29 00:15:20;;;;;;;;;;;;;;;8.87;97.84;99496.59;112218;1194;61026;-81
2021/09/29 00:17:47;;;;;;;;;;;;;;;8.84;97.88;99495.50;112253;1196;61072;-81
2021/09/29 00:20:14;;;;;;;;;;;;;;;8.82;98.07;99499.70;112242;1196;61065;-80
2021/09/29 00:22:42;;;;;;;;;;;;;;;8.81;98.11;99500.95;112309;1193;61087;-80
2021/09/29 00:25:09;;;;;;;;;;;;;;;8.82;98.12;99502.73;112273;1194;64670;-79
2021/09/29 00:27:37;;;;;;;;;;;;;;;8.80;98.18;99502.42;112279;1195;61279;-79
2021/09/29 00:30:06;;;;;;;;;;;;;;;8.79;98.33;99503.19;112217;1196;63648;-79
2021/09/29 00:32:38;;;;;;;;;;;;;;;8.78;98.28;99499.88;112275;1193;61045;-80
2021/09/29 00:35:05;;;;;;;;;;;;;;;8.77;98.29;99496.73;112298;1195;61078;-80
2021/09/29 00:37:32;;;;;;;;;;;;;;;8.76;98.48;99494.69;112246;1196;65992;-79
2021/09/29 00:39:58;;;;;;;;;;;;;;;8.74;98.54;99493.16;112284;1196;61055;-80
2021/09/29 00:42:25;;;;;;;;;;;;;;;8.73;98.52;99491.64;112246;1196;60949;-80
2021/09/29 00:44:51;;;;;;;;;;;;;;;8.70;98.43;99493.39;112201;1194;60976;-80
2021/09/29 00:47:18;;;;;;;;;;;;;;;8.67;98.40;99484.52;112299;1193;61065;-80
2021/09/29 00:49:46;;;;;;;;;;;;;;;8.64;98.51;99482.73;112281;1196;64482;-80
2021/09/29 00:52:13;;;;;;;;;;;;;;;8.60;98.53;99479.01;112260;1195;61042;-80
2021/09/29 00:54:40;;;;;;;;;;;;;;;8.57;98.53;99471.72;112285;1195;62745;-80
2021/09/29 00:57:06;;;;;;;;;;;;;;;8.55;98.72;99470.26;112245;1195;61033;-81
2021/09/29 00:59:33;;;;;;;;;;;;;;;8.52;98.91;99468.97;112166;1196;61193;-78
2021/09/29 01:01:59;;;;;;;;;;;;;;;8.50;98.92;99469.25;112217;1195;65791;-80
2021/09/29 01:04:27;;;;;;;;;;;;;;;8.48;98.89;99465.80;112075;1196;61068;-81
2021/09/29 01:06:56;;;;;;;;;;;;;;;8.46;98.98;99460.60;112278;1196;62918;-81
2021/09/29 01:09:41;;;;;;;;;;;;;;;8.44;98.91;99460.35;112232;1196;60953;-80
2021/09/29 01:12:23;;;;;;;;;;;;;;;8.42;98.93;99457.66;112302;1195;61091;-82
2021/09/29 01:14:56;;;;;;;;;;;;;;;8.40;98.93;99457.57;112318;1194;66969;-81
2021/09/29 01:17:23;;;;;;;;;;;;;;;8.36;98.86;99452.90;112292;1196;60953;-81
2021/09/29 01:20:19;;;;;;;;;;;;;;;8.33;98.98;99448.81;112354;1196;62327;-82
2021/09/29 01:22:45;;;;;;;;;;;;;;;8.30;98.98;99442.08;112109;1195;60975;-81
2021/09/29 01:25:17;;;;;;;;;;;;;;;8.27;99.09;99440.11;112189;1193;60953;-84
2021/09/29 01:27:44;;;;;;;;;;;;;;;8.24;99.07;99441.68;112319;1196;64813;-81
2021/09/29 01:30:11;;;;;;;;;;;;;;;8.21;99.05;99439.34;112241;1196;61061;-81
2021/09/29 01:32:39;;;;;;;;;;;;;;;8.18;99.09;99440.20;112283;1196;64032;-81
2021/09/29 01:35:06;;;;;;;;;;;;;;;8.16;99.27;99437.52;112270;1194;61021;-81
2021/09/29 01:37:33;;;;;;;;;;;;;;;8.12;99.43;99434.30;112196;1195;61087;-80
2021/09/29 01:40:00;;;;;;;;;;;;;;;8.10;99.32;99431.20;112280;1195;66928;-80
2021/09/29 01:42:26;;;;;;;;;;;;;;;8.08;99.21;99428.14;112238;1195;61764;-81
2021/09/29 01:44:53;;;;;;;;;;;;;;;8.05;99.46;99428.08;112150;1196;61047;-81
2021/09/29 01:47:19;;;;;;;;;;;;;;;8.04;99.48;99424.09;112253;1194;61061;-81
2021/09/29 01:49:49;;;;;;;;;;;;;;;8.02;99.54;99420.33;112260;1193;60965;-81
2021/09/29 01:52:19;;;;;;;;;;;;;;;8.00;99.68;99414.92;112244;1195;66056;-81
2021/09/29 01:54:46;;;;;;;;;;;;;;;7.99;99.77;99413.36;112283;1196;61030;-81
2021/09/29 01:57:13;;;;;;;;;;;;;;;7.97;99.77;99410.28;112313;1195;62771;-81
2021/09/29 01:59:43;;;;;;;;;;;;;;;7.95;99.64;99412.68;112268;1196;61026;-81
2021/09/29 02:02:11;;;;;;;;;;;;;;;7.93;99.66;99416.86;112309;1194;61206;-81
2021/09/29 02:04:48;;;;;;;;;;;;;;;7.92;99.68;99417.46;112263;1195;66010;-81
2021/09/29 02:07:15;;;;;;;;;;;;;;;7.90;99.85;99417.34;112284;1194;61013;-81
2021/09/29 02:09:42;;;;;;;;;;;;;;;7.89;99.84;99423.23;112274;1195;62656;-81
2021/09/29 02:12:10;;;;;;;;;;;;;;;7.87;99.73;99422.09;112198;1194;61007;-81
2021/09/29 02:14:37;;;;;;;;;;;;;;;7.84;99.75;99423.84;112247;1193;61070;-81
2021/09/29 02:17:04;;;;;;;;;;;;;;;7.81;99.76;99426.30;112240;1195;61148;-81
2021/09/29 02:19:30;;;;;;;;;;;;;;;7.78;99.70;99434.39;112279;1195;61062;-81
2021/09/29 02:21:56;;;;;;;;;;;;;;;7.75;99.72;99436.50;112273;1195;61052;-79
2021/09/29 02:24:23;;;;;;;;;;;;;;;7.72;99.63;99435.95;112227;1195;61055;-79
2021/09/29 02:26:50;;;;;;;;;;;;;;;7.69;99.72;99440.13;112263;1196;61053;-79
2021/09/29 02:29:17;;;;;;;;;;;;;;;7.67;99.78;99436.52;112266;1195;66007;-80
2021/09/29 02:31:44;;;;;;;;;;;;;;;7.62;99.74;99436.90;112264;1195;61036;-80
2021/09/29 02:34:11;;;;;;;;;;;;;;;7.59;99.79;99436.55;112213;1195;65024;-80
2021/09/29 02:36:37;;;;;;;;;;;;;;;7.55;99.81;99431.98;112238;1194;61161;-80
2021/09/29 02:39:04;;;;;;;;;;;;;;;7.51;99.75;99431.43;112218;1194;60981;-80
2021/09/29 02:41:31;;;;;;;;;;;;;;;7.47;99.66;99429.52;112223;1196;64646;-80
2021/09/29 02:43:57;;;;;;;;;;;;;;;7.41;99.65;99428.70;112269;1195;61058;-80
2021/09/29 02:46:25;;;;;;;;;;;;;;;7.36;99.70;99430.04;112288;1194;64029;-80
2021/09/29 02:48:52;;;;;;;;;;;;;;;7.30;99.72;99431.35;112273;1195;61030;-80
2021/09/29 02:51:18;;;;;;;;;;;;;;;7.25;99.77;99431.39;112296;1194;60950;-80
2021/09/29 02:53:45;;;;;;;;;;;;;;;7.20;99.78;99427.37;112310;1196;64662;-80
2021/09/29 02:56:12;;;;;;;;;;;;;;;7.18;99.89;99420.26;112255;1195;61092;-80
2021/09/29 02:58:38;;;;;;;;;;;;;;;7.15;99.90;99419.16;112239;1195;64768;-80
2021/09/29 03:01:05;;;;;;;;;;;;;;;7.12;99.97;99416.61;112261;1194;61209;-80
2021/09/29 03:03:32;;;;;;;;;;;;;;;7.13;100.00;99417.85;112153;1196;61057;-80
2021/09/29 03:05:58;;;;;;;;;;;;;;;7.11;100.00;99414.58;112244;1194;67603;-80
2021/09/29 03:08:25;;;;;;;;;;;;;;;7.10;100.00;99414.45;112269;1195;61055;-79
2021/09/29 03:10:52;;;;;;;;;;;;;;;7.08;100.00;99416.66;112241;1195;64118;-81
2021/09/29 03:13:18;;;;;;;;;;;;;;;7.06;100.00;99416.04;112289;1194;61055;-79
2021/09/29 03:15:45;;;;;;;;;;;;;;;7.03;100.00;99418.27;112156;1193;60965;-81
2021/09/29 03:18:11;;;;;;;;;;;;;;;7.02;100.00;99414.97;112200;1194;64793;-80
2021/09/29 03:20:38;;;;;;;;;;;;;;;7.02;100.00;99410.75;112073;1196;61071;-79
2021/09/29 03:23:04;;;;;;;;;;;;;;;7.01;100.00;99407.56;112233;1196;61205;-79
2021/09/29 03:25:31;;;;;;;;;;;;;;;7.00;100.00;99402.16;112092;1195;60950;-79
2021/09/29 03:27:58;;;;;;;;;;;;;;;7.00;100.00;99403.42;112160;1194;61114;-79
2021/09/29 03:30:24;;;;;;;;;;;;;;;6.98;100.00;99403.85;112231;1195;66132;-79
2021/09/29 03:32:51;;;;;;;;;;;;;;;6.96;100.00;99402.34;112246;1196;60949;-79
2021/09/29 03:35:18;;;;;;;;;;;;;;;6.94;100.00;99401.91;112249;1195;61078;-79
2021/09/29 03:37:44;;;;;;;;;;;;;;;6.92;100.00;99392.98;112208;1195;61011;-80
2021/09/29 03:40:12;;;;;;;;;;;;;;;6.91;100.00;99390.23;112246;1195;60966;-80
2021/09/29 03:42:39;;;;;;;;;;;;;;;6.89;100.00;99387.98;112248;1194;64370;-80
2021/09/29 03:45:06;;;;;;;;;;;;;;;6.88;100.00;99385.95;112249;1195;60959;-80
2021/09/29 03:47:33;;;;;;;;;;;;;;;6.85;100.00;99388.19;112261;1195;64948;-80
2021/09/29 03:50:00;;;;;;;;;;;;;;;6.83;100.00;99387.04;112291;1195;61081;-80
2021/09/29 03:52:26;;;;;;;;;;;;;;;6.83;100.00;99389.01;112290;1194;60991;-80
2021/09/29 03:54:53;;;;;;;;;;;;;;;6.84;100.00;99388.79;112250;1195;66024;-80
2021/09/29 03:57:19;;;;;;;;;;;;;;;6.86;100.00;99392.95;112249;1196;60998;-81
2021/09/29 03:59:46;;;;;;;;;;;;;;;6.88;100.00;99395.33;112255;1196;62634;-80
2021/09/29 04:02:13;;;;;;;;;;;;;;;6.91;100.00;99391.81;112306;1194;61097;-81
2021/09/29 04:04:39;;;;;;;;;;;;;;;6.94;100.00;99394.14;112280;1195;61059;-80
2021/09/29 04:07:06;;;;;;;;;;;;;;;6.97;100.00;99395.77;112279;1196;65370;-79
2021/09/29 04:09:33;;;;;;;;;;;;;;;7.00;100.00;99388.93;112151;1196;60972;-83
2021/09/29 04:11:59;;;;;;;;;;;;;;;7.00;100.00;99387.66;112160;1196;63982;-83
2021/09/29 04:14:26;;;;;;;;;;;;;;;7.02;100.00;99385.63;112249;1195;61071;-81
2021/09/29 04:16:53;;;;;;;;;;;;;;;7.03;100.00;99383.98;112247;1193;61101;-84
2021/09/29 04:19:19;;;;;;;;;;;;;;;7.04;100.00;99378.65;112323;1194;60997;-80
2021/09/29 04:21:46;;;;;;;;;;;;;;;7.05;100.00;99375.08;112305;1196;61042;-81
2021/09/29 04:24:12;;;;;;;;;;;;;;;7.08;100.00;99373.02;112201;1196;61007;-84
2021/09/29 04:26:40;;;;;;;;;;;;;;;7.09;100.00;99372.96;112107;1195;61049;-82
2021/09/29 04:29:07;;;;;;;;;;;;;;;7.08;100.00;99376.18;112244;1196;61059;-81
2021/09/29 04:31:33;;;;;;;;;;;;;;;7.08;100.00;99376.73;112251;1195;65828;-81
2021/09/29 04:34:00;;;;;;;;;;;;;;;7.06;100.00;99372.38;112287;1195;61036;-79
2021/09/29 04:36:27;;;;;;;;;;;;;;;7.05;100.00;99371.54;112255;1196;61046;-79
2021/09/29 04:38:53;;;;;;;;;;;;;;;7.04;100.00;99370.69;112197;1196;61046;-80
2021/09/29 04:41:19;;;;;;;;;;;;;;;7.04;100.00;99371.08;112174;1194;60976;-80
2021/09/29 04:43:46;;;;;;;;;;;;;;;7.04;100.00;99370.91;112045;1195;61097;-80
2021/09/29 04:46:12;;;;;;;;;;;;;;;7.03;100.00;99370.40;112167;1195;61027;-80
2021/09/29 04:48:39;;;;;;;;;;;;;;;7.02;100.00;99369.91;112203;1195;65406;-79
2021/09/29 04:51:05;;;;;;;;;;;;;;;7.01;100.00;99374.23;112201;1194;61042;-79
2021/09/29 04:53:32;;;;;;;;;;;;;;;6.99;100.00;99381.20;112184;1196;61005;-79
2021/09/29 04:56:00;;;;;;;;;;;;;;;6.98;100.00;99379.83;112227;1196;61103;-80
2021/09/29 04:58:27;;;;;;;;;;;;;;;6.97;100.00;99377.21;112218;1194;60998;-80
2021/09/29 05:00:54;;;;;;;;;;;;;;;6.95;100.00;99374.84;112278;1196;62445;-78
2021/09/29 05:03:22;;;;;;;;;;;;;;;6.93;100.00;99379.19;112295;1196;61024;-81
2021/09/29 05:05:48;;;;;;;;;;;;;;;6.93;100.00;99387.14;112260;1195;61030;-79
2021/09/29 05:08:24;;;;;;;;;;;;;;;6.91;100.00;99381.55;112232;1195;61001;-79
2021/09/29 05:10:50;;;;;;;;;;;;;;;6.89;100.00;99384.84;112262;1196;61034;-82
2021/09/29 05:13:17;;;;;;;;;;;;;;;6.87;100.00;99385.13;112211;1194;60937;-80
2021/09/29 05:15:44;;;;;;;;;;;;;;;6.87;100.00;99382.83;112260;1194;60983;-80
2021/09/29 05:18:11;;;;;;;;;;;;;;;6.88;100.00;99382.79;112274;1194;61055;-80
2021/09/29 05:20:37;;;;;;;;;;;;;;;6.88;100.00;99384.33;112300;1196;65984;-80
2021/09/29 05:23:04;;;;;;;;;;;;;;;6.90;100.00;99385.31;112117;1195;61077;-80
2021/09/29 05:25:30;;;;;;;;;;;;;;;6.92;100.00;99380.83;112238;1196;61056;-80
2021/09/29 05:27:57;;;;;;;;;;;;;;;6.95;100.00;99382.08;112073;1195;60976;-80
2021/09/29 05:30:24;;;;;;;;;;;;;;;7.00;100.00;99381.84;112300;1195;61199;-80
2021/09/29 05:32:50;;;;;;;;;;;;;;;7.02;100.00;99381.39;112240;1195;60948;-80
2021/09/29 05:35:17;;;;;;;;;;;;;;;7.05;100.00;99381.10;112238;1195;61707;-80
2021/09/29 05:37:44;;;;;;;;;;;;;;;7.07;100.00;99385.98;112201;1195;64029;-80
2021/09/29 05:40:11;;;;;;;;;;;;;;;7.09;100.00;99386.92;112250;1195;61056;-79
2021/09/29 05:42:37;;;;;;;;;;;;;;;7.12;100.00;99388.91;112284;1194;61065;-81
2021/09/29 05:45:05;;;;;;;;;;;;;;;7.12;100.00;99385.55;112281;1195;61046;-81
2021/09/29 05:47:31;;;;;;;;;;;;;;;7.14;100.00;99390.42;112258;1195;60913;-80
2021/09/29 05:49:58;;;;;;;;;;;;;;;7.18;100.00;99392.52;112299;1196;61053;-80
2021/09/29 05:52:24;;;;;;;;;;;;;;;7.22;100.00;99392.50;112067;1196;61020;-80
2021/09/29 05:54:51;;;;;;;;;;;;;;;7.26;100.00;99391.77;112302;1193;61029;-84
2021/09/29 05:57:17;;;;;;;;;;;;;;;7.31;100.00;99395.45;112241;1194;60969;-82
2021/09/29 05:59:46;;;;;;;;;;;;;;;7.35;100.00;99398.06;112275;1196;61042;-82
2021/09/29 06:02:12;;;;;;;;;;;;;;;7.39;100.00;99403.55;112244;1196;63972;-82
2021/09/29 06:04:41;;;;;;;;;;;;;;;7.41;100.00;99405.05;112288;1196;61039;-82
2021/09/29 06:07:10;;;;;;;;;;;;;;;7.44;100.00;99405.44;112294;1196;60976;-82
2021/09/29 06:09:40;;;;;;;;;;;;;;;7.48;100.00;99407.19;112292;1196;64860;-82
2021/09/29 06:12:08;;;;;;;;;;;;;;;7.54;99.99;99407.09;112273;1195;61113;-83
2021/09/29 06:14:35;;;;;;;;;;;;;;;7.55;99.89;99405.59;112221;1196;64993;-82
2021/09/29 06:17:12;;;;;;;;;;;;;;;7.55;99.84;99410.91;112247;1196;61001;-82
2021/09/29 06:19:39;;;;;;;;;;;;;;;7.56;99.81;99414.60;112281;1195;60997;-82
2021/09/29 06:22:06;;;;;;;;;;;;;;;7.60;99.83;99414.23;112105;1196;66972;-81
2021/09/29 06:24:33;;;;;;;;;;;;;;;7.64;99.67;99415.09;112272;1196;61037;-83
2021/09/29 06:26:59;;;;;;;;;;;;;;;7.66;99.55;99413.36;112222;1195;64115;-81
2021/09/29 06:29:26;;;;;;;;;;;;;;;7.74;99.48;99413.02;112226;1193;61104;-83
2021/09/29 06:31:52;;;;;;;;;;;;;;;7.81;99.37;99412.48;112280;1194;60982;-85
2021/09/29 06:34:19;;;;;;;;;;;;;;;7.86;99.05;99411.88;112057;1196;61121;-85
2021/09/29 06:36:45;;;;;;;;;;;;;;;7.92;98.95;99417.60;112268;1196;61025;-84
2021/09/29 06:39:11;;;;;;;;;;;;;;;7.99;98.85;99415.48;112286;1196;61055;-83
2021/09/29 06:41:41;;;;;;;;;;;;;;;8.04;98.62;99413.32;112207;1194;61039;-85
2021/09/29 06:44:08;;;;;;;;;;;;;;;8.07;98.36;99414.39;112299;1193;61410;-82
2021/09/29 06:46:34;;;;;;;;;;;;;;;8.11;98.35;99411.88;112317;1195;65908;-82
2021/09/29 06:49:01;;;;;;;;;;;;;;;8.19;98.21;99417.53;111993;1194;61138;-82
2021/09/29 06:51:28;;;;;;;;;;;;;;;8.20;97.88;99419.58;112255;1195;64089;-84
2021/09/29 06:53:54;;;;;;;;;;;;;;;8.23;97.90;99421.02;112248;1195;61056;-84
2021/09/29 06:56:21;;;;;;;;;;;;;;;8.26;97.80;99419.46;112164;1195;61144;-84
2021/09/29 06:58:51;;;;;;;;;;;;;;;8.27;97.78;99422.91;112290;1195;65712;-83
2021/09/29 07:01:18;;;;;;;;;;;;;;;8.34;97.70;99424.88;112303;1196;60975;-83
2021/09/29 07:03:45;;;;;;;;;;;;;;;8.42;97.42;99424.35;112269;1195;62731;-85
2021/09/29 07:06:12;;;;;;;;;;;;;;;8.49;97.33;99422.03;112251;1196;60979;-85
2021/09/29 07:08:38;;;;;;;;;;;;;;;8.54;97.46;99423.55;112110;1195;59840;-86
2021/09/29 07:11:05;;;;;;;;;;;;;;;8.63;97.22;99420.60;112390;1196;66106;-84
2021/09/29 07:13:32;;;;;;;;;;;;;;;8.74;97.05;99419.68;112502;1194;61078;-83
2021/09/29 07:15:59;;;;;;;;;;;;;;;8.84;96.72;99419.16;112102;1196;62671;-84
2021/09/29 07:18:32;;;;;;;;;;;;;;;8.88;96.41;99415.70;112406;1195;60968;-84
2021/09/29 07:20:59;;;;;;;;;;;;;;;8.89;96.22;99413.59;112340;1196;61094;-85
2021/09/29 07:23:25;;;;;;;;;;;;;;;8.91;96.23;99413.96;112344;1196;65714;-82
2021/09/29 07:25:52;;;;;;;;;;;;;;;8.93;95.88;99414.78;112243;1195;61001;-85
2021/09/29 07:28:19;;;;;;;;;;;;;;;8.96;95.99;99416.16;112240;1196;64650;-85
2021/09/29 07:30:46;;;;;;;;;;;;;;;9.04;95.89;99421.06;112096;1196;61097;-85
2021/09/29 07:33:13;;;;;;;;;;;;;;;9.10;95.63;99423.08;112350;1195;61046;-85
2021/09/29 07:35:41;;;;;;;;;;;;;;;9.17;95.65;99423.54;112101;1196;66021;-84
2021/09/29 07:38:07;;;;;;;;;;;;;;;9.25;95.45;99422.96;112346;1196;61031;-84
2021/09/29 07:40:34;;;;;;;;;;;;;;;9.28;95.26;99422.27;112247;1195;61065;-84
2021/09/29 07:43:01;;;;;;;;;;;;;;;9.27;95.07;99422.33;112291;1196;61141;-83
2021/09/29 07:45:28;;;;;;;;;;;;;;;9.29;95.19;99423.11;112312;1195;61074;-84
2021/09/29 07:47:55;;;;;;;;;;;;;;;9.36;95.25;99423.94;112329;1195;61075;-83
2021/09/29 07:50:22;;;;;;;;;;;;;;;9.48;95.01;99424.90;112127;1196;61056;-82
2021/09/29 07:52:50;;;;;;;;;;;;;;;9.60;94.56;99425.84;112252;1195;64785;-83
2021/09/29 07:55:17;;;;;;;;;;;;;;;9.67;94.17;99420.81;112250;1196;61077;-84
2021/09/29 07:57:44;;;;;;;;;;;;;;;9.72;93.91;99419.66;112172;1196;61042;-83
2021/09/29 08:00:12;;;;;;;;;;;;;;;9.79;94.13;99420.33;112248;1195;64655;-83
2021/09/29 08:02:39;;;;;;;;;;;;;;;9.86;94.11;99420.98;112265;1195;61459;-83
2021/09/29 08:05:05;;;;;;;;;;;;;;;9.95;94.07;99416.16;112246;1195;62657;-83
2021/09/29 08:07:32;;;;;;;;;;;;;;;10.07;93.43;99417.29;112246;1195;60951;-83
2021/09/29 08:09:58;;;;;;;;;;;;;;;10.16;93.13;99413.94;112231;1194;60975;-84
2021/09/29 08:12:25;;;;;;;;;;;;;;;10.26;92.97;99411.41;112272;1196;61017;-81
2021/09/29 08:14:52;;;;;;;;;;;;;;;10.32;92.76;99409.64;112127;1196;61043;-82
2021/09/29 08:17:19;;;;;;;;;;;;;;;10.30;92.41;99416.51;112271;1196;64024;-81
2021/09/29 08:19:45;;;;;;;;;;;;;;;10.30;92.65;99411.16;112288;1196;60975;-84
2021/09/29 08:22:13;;;;;;;;;;;;;;;10.39;92.59;99408.33;112335;1194;60968;-82
2021/09/29 08:44:54;;;;;;;;;;;;;;;10.93;90.39;99392.46;112312;1195;61058;-93
2021/09/29 08:47:38;;;;;;;;;;;;;;;11.10;89.99;99392.79;112273;1196;60973;-90
2021/09/29 08:50:27;;;;;;;;;;;;;;;11.34;89.64;99390.40;112613;1196;65848;-93
2021/09/29 09:14:45;;;;;;;;;;;;;;;11.57;88.44;99391.92;112407;1195;61043;-92
2021/09/29 09:15:31;;;;;;;;;;;;;;;11.96;86.43;99386.39;112555;1195;61061;-92
2021/09/29 09:18:02;;;;;;;;;;;;;;;11.97;86.64;99386.32;112255;1195;64493;-92
2021/09/29 09:20:29;;;;;;;;;;;;;;;12.12;86.74;99384.39;112305;1196;61004;-92
2021/09/29 09:22:56;;;;;;;;;;;;;;;12.21;86.30;99386.11;112101;1195;64004;-92
2021/09/29 09:25:42;;;;;;;;;;;;;;;12.43;86.06;99383.42;112127;1195;61045;-92
2021/09/29 09:28:21;;;;;;;;;;;;;;;12.69;85.07;99387.30;112366;1194;61094;-92
2021/09/29 09:30:50;;;;;;;;;;;;;;;12.88;85.03;99383.49;112268;1196;66016;-92
2021/09/29 09:33:24;;;;;;;;;;;;;;;12.93;85.01;99383.84;112320;1194;60928;-93
2021/09/29 09:35:51;;;;;;;;;;;;;;;13.10;84.78;99381.73;112111;1196;64050;-92
2021/09/29 09:38:21;;;;;;;;;;;;;;;13.30;84.05;99383.55;112177;1196;61036;-92
2021/09/29 09:41:00;;;;;;;;;;;;;;;13.46;83.91;99380.43;112316;1195;61010;-92
2021/09/29 09:43:28;;;;;;;;;;;;;;;13.59;83.74;99380.04;112217;1195;64348;-92
2021/09/29 09:45:56;;;;;;;;;;;;;;;13.60;83.47;99380.11;112168;1195;61055;-94
2021/09/29 09:48:27;;;;;;;;;;;;;;;13.60;83.19;99379.45;112210;1196;64026;-93
2021/09/29 09:51:15;;;;;;;;;;;;;;;13.65;82.94;99381.08;112232;1196;60949;-93
2021/09/29 09:53:51;;;;;;;;;;;;;;;13.53;82.10;99377.33;112394;1193;61046;-93
2021/09/29 09:56:21;;;;;;;;;;;;;;;13.38;82.92;99376.42;112208;1196;65988;-93
2021/09/29 09:58:49;;;;;;;;;;;;;;;13.32;83.16;99374.33;112220;1196;61062;-94
2021/09/29 10:01:19;;;;;;;;;;;;;;;13.24;82.56;99376.68;112202;1196;62622;-92
2021/09/29 10:03:47;;;;;;;;;;;;;;;13.10;82.60;99380.70;112431;1196;61084;-91
2021/09/29 10:06:14;;;;;;;;;;;;;;;13.05;82.81;99378.95;112106;1196;60947;-93
2021/09/29 10:08:46;;;;;;;;;;;;;;;12.93;82.46;99373.16;112242;1196;66038;-94
2021/09/29 10:11:26;;;;;;;;;;;;;;;12.79;82.94;99372.57;112848;1193;61023;-92
2021/09/29 10:14:22;;;;;;;;;;;;;;;12.75;83.31;99367.69;115595;1194;62741;-90
2021/09/29 10:28:10;;;;;;;;;;;;;;;13.44;82.92;99361.85;112398;1196;62734;-93
2021/09/29 10:30:48;;;;;;;;;;;;;;;13.47;82.67;99362.91;112209;1194;61081;-93
2021/09/29 10:33:22;;;;;;;;;;;;;;;13.49;82.78;99359.75;112246;1195;61249;-93
2021/09/29 10:36:05;;;;;;;;;;;;;;;13.55;83.13;99361.09;112175;1195;64661;-93
2021/09/29 10:41:31;;;;;;;;;;;;;;;13.74;83.09;99353.81;112394;1194;64008;-91
2021/09/29 10:44:05;;;;;;;;;;;;;;;13.88;82.65;99350.62;112294;1196;61016;-91
2021/09/29 11:06:15;;;;;;;;;;;;;;;14.47;81.49;99335.73;112309;1196;61039;-80
2021/09/29 11:09:07;;;;;;;;;;;;;;;14.53;81.10;99332.42;112234;1196;64649;-80
2021/09/29 11:12:08;;;;;;;;;;;;;;;14.57;81.00;99329.44;112291;1195;60939;-79
2021/09/29 11:29:00;;;;;;;;;;;;;;;14.86;79.79;99322.17;112220;1196;61037;-79
2021/09/29 11:34:04;;;;;;;;;;;;;;;14.89;79.66;99319.20;112175;1196;61084;-79
2021/09/29 12:09:31;;;;;;;;;;;;;;;15.57;77.87;99304.98;112293;1193;61023;-79
2021/09/29 12:12:20;;;;;;;;;;;;;;;15.80;77.94;99303.05;112249;1196;66082;-79
2021/09/29 12:14:51;;;;;;;;;;;;;;;16.06;77.67;99302.64;112305;1197;60962;-79
2021/09/29 12:17:18;;;;;;;;;;;;;;;16.23;77.18;99299.24;112275;1196;63906;-79
2021/09/29 12:19:51;;;;;;;;;;;;;;;16.36;76.85;99304.59;112248;1196;61007;-79
2021/09/29 12:22:18;;;;;;;;;;;;;;;16.43;76.50;99307.55;112302;1196;61032;-79
2021/09/29 12:24:48;;;;;;;;;;;;;;;16.49;76.04;99308.14;112244;1196;64683;-79
2021/09/29 12:27:31;;;;;;;;;;;;;;;16.48;75.62;99312.95;112296;1196;61065;-79
2021/09/29 12:30:03;;;;;;;;;;;;;;;16.46;75.56;99311.29;112256;1197;65135;-78
2021/09/29 12:32:47;;;;;;;;;;;;;;;16.44;74.89;99310.55;112169;1196;61052;-79
2021/09/29 12:35:23;;;;;;;;;;;;;;;16.39;75.16;99311.33;112217;1196;61007;-80
2021/09/29 12:37:54;;;;;;;;;;;;;;;16.39;75.29;99306.17;112193;1196;65980;-80
2021/09/29 12:40:20;;;;;;;;;;;;;;;16.45;75.46;99307.74;112179;1196;61060;-80
2021/09/29 12:42:55;;;;;;;;;;;;;;;16.53;74.82;99305.27;112175;1196;60934;-81
2021/09/29 12:45:28;;;;;;;;;;;;;;;16.56;74.83;99305.20;112221;1195;61062;-79
2021/09/29 12:47:57;;;;;;;;;;;;;;;16.61;75.04;99305.65;112203;1196;61052;-80
2021/09/29 12:50:27;;;;;;;;;;;;;;;16.66;74.86;99307.15;112203;1195;65882;-79
2021/09/29 12:53:14;;;;;;;;;;;;;;;16.69;74.96;99305.69;112303;1196;61033;-79
2021/09/29 12:55:44;;;;;;;;;;;;;;;16.76;75.16;99301.68;112254;1195;64184;-80
2021/09/29 12:58:10;;;;;;;;;;;;;;;16.83;75.43;99298.41;112168;1196;60982;-81
2021/09/29 13:00:37;;;;;;;;;;;;;;;16.88;75.22;99297.27;112252;1195;61030;-80
2021/09/29 13:03:05;;;;;;;;;;;;;;;16.91;75.10;99299.64;112169;1196;65831;-79
2021/09/29 13:05:32;;;;;;;;;;;;;;;16.90;75.11;99303.87;112244;1196;61075;-78
2021/09/29 13:07:59;;;;;;;;;;;;;;;16.93;75.28;99305.04;112214;1194;62629;-82
2021/09/29 13:10:26;;;;;;;;;;;;;;;16.94;74.72;99302.66;112242;1196;60957;-82
2021/09/29 13:12:53;;;;;;;;;;;;;;;16.92;74.97;99304.13;112217;1196;61084;-81
2021/09/29 13:15:20;;;;;;;;;;;;;;;17.00;75.34;99306.73;112148;1195;64665;-80
2021/09/29 13:17:50;;;;;;;;;;;;;;;17.11;75.45;99308.29;112235;1196;61012;-81
2021/09/29 13:20:20;;;;;;;;;;;;;;;17.17;75.20;99311.20;112377;1196;64978;-80
2021/09/29 13:22:53;;;;;;;;;;;;;;;17.18;75.14;99312.76;112265;1196;61029;-80
2021/09/29 13:38:53;;;;;;;;;;;;;;;16.93;74.53;99311.33;112312;1196;60971;-79
2021/09/29 13:41:20;;;;;;;;;;;;;;;16.82;74.63;99311.59;112278;1196;64600;-79
2021/09/29 13:43:47;;;;;;;;;;;;;;;16.69;74.70;99309.61;112143;1197;61031;-79
2021/09/29 13:46:13;;;;;;;;;;;;;;;16.60;74.91;99307.55;112277;1194;63963;-79
2021/09/29 13:48:40;;;;;;;;;;;;;;;16.54;75.16;99306.52;112282;1195;61065;-79
2021/09/29 13:51:07;;;;;;;;;;;;;;;16.52;75.56;99302.74;112295;1195;61042;-80
2021/09/29 13:53:33;;;;;;;;;;;;;;;16.55;75.64;99296.19;112241;1196;64939;-80
2021/09/29 13:56:04;;;;;;;;;;;;;;;16.61;75.84;99294.89;112285;1195;60985;-79
2021/09/29 14:01:47;;;;;;;;;;;;;;;16.71;76.08;99296.15;112178;1195;61061;-79
2021/09/29 14:34:40;;;;;;;;;;;;;;;16.46;76.64;99301.23;111644;1198;64673;-80
2021/09/29 14:37:09;;;;;;;;;;;;;;;16.40;76.73;99300.14;111619;1199;61039;-80
2021/09/29 14:39:35;;;;;;;;;;;;;;;16.30;76.89;99301.90;111900;1195;63818;-79
2021/09/29 14:42:02;;;;;;;;;;;;;;;16.21;77.19;99300.71;112182;1193;61063;-80
2021/09/29 14:44:31;;;;;;;;;;;;;;;16.15;77.18;99295.98;112202;1197;61052;-79
2021/09/29 14:46:58;;;;;;;;;;;;;;;16.10;77.37;99293.40;112187;1196;64430;-79
2021/09/29 14:49:25;;;;;;;;;;;;;;;16.06;77.57;99293.02;112304;1195;61035;-80
2021/09/29 14:51:51;;;;;;;;;;;;;;;16.03;77.67;99288.05;112302;1196;62620;-79
2021/09/29 14:54:18;;;;;;;;;;;;;;;16.01;77.74;99286.23;112217;1194;60985;-79
2021/09/29 14:56:46;;;;;;;;;;;;;;;15.98;77.78;99280.98;112293;1194;61084;-79
2021/09/29 14:59:13;;;;;;;;;;;;;;;15.94;77.91;99281.49;112182;1194;66753;-79
2021/09/29 15:01:39;;;;;;;;;;;;;;;15.90;78.27;99281.77;112134;1195;61014;-80
2021/09/29 15:04:07;;;;;;;;;;;;;;;15.89;78.27;99286.55;112096;1196;63368;-79
2021/09/29 15:06:36;;;;;;;;;;;;;;;15.86;78.34;99294.75;112250;1196;61020;-79
2021/09/29 15:09:02;;;;;;;;;;;;;;;15.82;78.46;99302.02;112245;1194;61010;-79
2021/09/29 15:11:29;;;;;;;;;;;;;;;15.80;78.85;99298.59;112253;1196;61000;-79
2021/09/29 15:13:59;;;;;;;;;;;;;;;15.78;78.99;99304.84;112285;1196;61042;-79
2021/09/29 15:22:32;;;;;;;;;;;;;;;15.71;79.44;99293.95;112267;1194;61058;-80
2021/09/29 15:25:05;;;;;;;;;;;;;;;15.65;79.48;99293.61;112251;1196;64639;-79
2021/09/29 15:46:15;;;;;;;;;;;;;;;15.47;80.19;99289.79;112187;1195;61165;-79
2021/09/29 15:47:01;;;;;;;;;;;;;;;15.12;81.46;99280.67;112278;1193;61065;-81
2021/09/29 15:49:45;;;;;;;;;;;;;;;15.04;81.61;99280.27;112256;1193;60985;-82
2021/09/29 16:13:18;;;;;;;;;;;;;;;14.44;83.77;99286.98;112250;1193;60950;-81
2021/09/29 16:31:44;;;;;;;;;;;;;;;13.87;85.33;99300.98;112277;1196;64347;-79
2021/09/29 16:34:24;;;;;;;;;;;;;;;13.80;85.52;99297.39;112303;1196;61435;-80
2021/09/29 16:36:54;;;;;;;;;;;;;;;13.72;85.83;99300.69;112247;1195;62804;-80
2021/09/29 16:39:21;;;;;;;;;;;;;;;13.65;86.14;99301.58;112251;1194;61010;-79